Time;durP1;ratioP1;P1;durP2;ratioP2;P2;SDS_P1;SDS_P2;PMS_P1;PMS_P2;Temp;Humidity;BMP_temperature;BMP_pressure;BME280_temperature;BME280_humidity;BME280_pressure;Samples;Min_cycle;Max_cycle;Signal;HPM_P1;HPM_P2
2022/05/17 00:00:42;;;;;;;25.35;7.68;;;14.80;99.90;;;;;;5138799;27;20038;-79
2022/05/17 00:03:08;;;;;;;23.85;8.20;;;14.80;99.90;;;;;;5138381;27;20081;-79
2022/05/17 00:05:34;;;;;;;22.38;7.05;;;14.80;99.90;;;;;;5157714;27;20035;-79
2022/05/17 00:08:00;;;;;;;29.70;8.73;;;14.70;99.90;;;;;;5137400;27;20047;-79
2022/05/17 00:10:26;;;;;;;30.52;8.38;;;14.70;99.90;;;;;;5156582;27;20059;-79
2022/05/17 00:12:53;;;;;;;29.13;8.60;;;14.70;99.90;;;;;;5144222;27;20500;-79
2022/05/17 00:15:20;;;;;;;35.70;9.77;;;14.60;99.90;;;;;;5138748;27;20042;-79
2022/05/17 00:17:48;;;;;;;29.05;8.60;;;14.60;99.90;;;;;;5136341;27;20046;-79
2022/05/17 00:20:14;;;;;;;24.45;8.25;;;14.50;99.90;;;;;;5138733;27;20074;-79
2022/05/17 00:22:41;;;;;;;29.58;8.60;;;14.50;99.90;;;;;;5108579;27;20054;-78
2022/05/17 00:25:08;;;;;;;19.88;8.85;;;14.50;99.90;;;;;;5135541;27;20152;-79
2022/05/17 00:27:34;;;;;;;26.75;8.82;;;14.50;99.90;;;;;;5143219;27;20054;-79
2022/05/17 00:30:01;;;;;;;25.25;8.93;;;14.50;99.90;;;;;;5118177;27;20036;-79
2022/05/17 00:32:26;;;;;;;25.67;8.73;;;14.40;99.90;;;;;;5124666;27;20125;-79
2022/05/17 00:34:52;;;;;;;29.20;9.13;;;14.40;99.90;;;;;;5138361;27;20133;-79
2022/05/17 00:37:20;;;;;;;22.05;7.30;;;14.40;99.90;;;;;;5136403;27;20057;-78
2022/05/17 00:39:46;;;;;;;28.52;8.98;;;14.40;99.90;;;;;;5137803;27;20057;-78
2022/05/17 00:42:11;;;;;;;23.92;8.85;;;14.40;99.90;;;;;;5132225;27;20475;-78
2022/05/17 00:44:43;;;;;;;27.05;8.95;;;14.30;99.90;;;;;;5136191;27;20046;-79
2022/05/17 00:47:24;;;;;;;24.20;8.10;;;14.30;99.90;;;;;;5119412;27;20039;-79
2022/05/17 00:49:53;;;;;;;25.02;8.75;;;14.30;99.90;;;;;;5136095;27;20039;-78
2022/05/17 00:52:26;;;;;;;25.02;8.30;;;14.30;99.90;;;;;;5135121;27;20039;-78
2022/05/17 00:54:58;;;;;;;21.27;6.97;;;14.30;99.90;;;;;;5117553;27;20096;-79
2022/05/17 00:57:45;;;;;;;24.98;8.82;;;14.30;99.90;;;;;;5104467;27;20058;-79
2022/05/17 01:00:13;;;;;;;25.90;8.80;;;14.20;99.90;;;;;;5155430;27;20050;-79
2022/05/17 01:02:42;;;;;;;19.70;8.32;;;14.20;99.90;;;;;;5108956;27;20047;-79
2022/05/17 01:05:09;;;;;;;24.45;8.23;;;14.20;99.90;;;;;;5134985;27;20478;-79
2022/05/17 01:07:43;;;;;;;25.17;8.20;;;14.20;99.90;;;;;;5116696;27;20043;-78
2022/05/17 01:10:11;;;;;;;26.17;7.55;;;14.20;99.90;;;;;;5116711;27;20043;-79
2022/05/17 01:12:38;;;;;;;26.38;8.40;;;14.10;99.90;;;;;;5134985;27;20043;-79
2022/05/17 01:15:09;;;;;;;26.42;8.50;;;14.20;99.90;;;;;;5116212;27;20039;-78
2022/05/17 01:17:38;;;;;;;27.35;9.07;;;14.10;99.90;;;;;;5124193;27;20137;-78
2022/05/17 01:20:08;;;;;;;32.53;8.40;;;14.10;99.90;;;;;;5133991;27;20092;-79
2022/05/17 01:22:34;;;;;;;30.48;8.68;;;14.10;99.90;;;;;;5116872;27;20043;-79
2022/05/17 01:25:00;;;;;;;29.38;8.00;;;14.10;99.90;;;;;;5134980;27;20043;-78
2022/05/17 01:27:40;;;;;;;23.58;7.95;;;14.10;99.90;;;;;;5144625;27;20039;-78
2022/05/17 01:30:07;;;;;;;24.13;7.97;;;14.10;99.90;;;;;;5134872;27;20091;-79
2022/05/17 01:32:33;;;;;;;24.83;7.65;;;14.00;99.90;;;;;;5156121;27;20126;-79
2022/05/17 01:34:59;;;;;;;27.95;9.43;;;14.00;99.90;;;;;;5120347;27;20051;-78
2022/05/17 01:37:25;;;;;;;27.35;8.85;;;14.00;99.90;;;;;;5147309;27;20091;-79
2022/05/17 01:39:51;;;;;;;21.20;7.30;;;14.00;99.90;;;;;;5155656;27;20038;-79
2022/05/17 01:42:17;;;;;;;22.73;6.82;;;14.00;99.90;;;;;;5153021;27;20117;-79
2022/05/17 01:44:43;;;;;;;21.77;7.82;;;13.90;99.90;;;;;;5141429;27;20063;-78
2022/05/17 01:47:11;;;;;;;27.98;8.10;;;13.90;99.90;;;;;;5143734;27;20053;-79
2022/05/17 01:49:37;;;;;;;21.83;8.68;;;13.90;99.90;;;;;;5136711;27;20070;-79
2022/05/17 01:52:03;;;;;;;25.38;6.68;;;13.90;99.90;;;;;;5110897;27;20618;-79
2022/05/17 01:54:29;;;;;;;20.67;7.40;;;13.90;99.90;;;;;;5134918;27;20070;-79
2022/05/17 01:56:54;;;;;;;23.63;7.72;;;13.90;99.90;;;;;;5123235;27;20093;-79
2022/05/17 01:59:20;;;;;;;19.45;7.82;;;13.90;99.90;;;;;;5136752;27;20074;-81
2022/05/17 02:01:46;;;;;;;21.38;6.93;;;13.90;99.90;;;;;;5118150;27;20043;-79
2022/05/17 02:04:12;;;;;;;20.35;7.50;;;13.90;99.90;;;;;;5134768;27;20042;-79
2022/05/17 02:06:38;;;;;;;21.05;7.32;;;13.90;99.90;;;;;;5133598;27;20050;-79
2022/05/17 02:09:04;;;;;;;22.95;7.70;;;13.90;99.90;;;;;;5136586;27;20042;-79
2022/05/17 02:11:30;;;;;;;34.60;8.60;;;13.90;99.90;;;;;;5153525;27;20038;-79
2022/05/17 02:13:56;;;;;;;27.02;8.20;;;13.90;99.90;;;;;;5155354;27;20051;-80
2022/05/17 02:16:22;;;;;;;23.25;7.30;;;13.90;99.90;;;;;;5132081;27;20039;-79
2022/05/17 02:18:47;;;;;;;24.30;7.43;;;13.90;99.90;;;;;;5135654;27;20375;-79
2022/05/17 02:21:13;;;;;;;24.98;7.97;;;13.90;99.90;;;;;;5134043;27;20079;-79
2022/05/17 02:23:39;;;;;;;21.10;7.72;;;13.80;99.90;;;;;;5133656;28;20070;-79
2022/05/17 02:26:05;;;;;;;26.10;8.13;;;13.80;99.90;;;;;;5124663;27;20046;-79
2022/05/17 02:28:31;;;;;;;19.08;6.60;;;13.80;99.90;;;;;;5137384;27;20117;-79
2022/05/17 02:30:56;;;;;;;21.17;7.40;;;13.80;99.90;;;;;;5137426;27;20137;-79
2022/05/17 02:33:22;;;;;;;16.70;6.93;;;13.80;99.90;;;;;;5120183;27;20070;-79
2022/05/17 02:35:48;;;;;;;24.52;7.97;;;13.80;99.90;;;;;;5119698;27;20047;-79
2022/05/17 02:38:13;;;;;;;17.65;7.72;;;13.80;99.90;;;;;;5139120;27;20091;-79
2022/05/17 02:40:39;;;;;;;19.77;7.35;;;13.80;99.90;;;;;;5157777;27;20035;-79
2022/05/17 02:43:05;;;;;;;19.05;7.20;;;13.80;99.90;;;;;;5140553;27;20382;-79
2022/05/17 02:45:32;;;;;;;13.95;6.63;;;13.80;99.90;;;;;;5138178;27;20080;-79
2022/05/17 02:47:58;;;;;;;23.08;8.15;;;13.80;99.90;;;;;;5123742;27;20073;-79
2022/05/17 02:50:24;;;;;;;16.45;7.22;;;13.80;99.90;;;;;;5138993;27;20134;-79
2022/05/17 02:52:49;;;;;;;22.67;7.30;;;13.70;99.90;;;;;;5138217;27;20126;-79
2022/05/17 02:55:15;;;;;;;21.35;7.40;;;13.70;99.90;;;;;;5131164;27;20051;-79
2022/05/17 02:57:41;;;;;;;18.75;7.85;;;13.70;99.90;;;;;;5137960;27;20054;-79
2022/05/17 03:00:11;;;;;;;16.48;7.90;;;13.70;99.90;;;;;;5118824;27;20047;-79
2022/05/17 03:02:37;;;;;;;22.55;8.48;;;13.70;99.90;;;;;;5119490;27;20043;-79
2022/05/17 03:05:03;;;;;;;21.75;8.38;;;13.70;99.90;;;;;;5131591;27;20058;-79
2022/05/17 03:07:29;;;;;;;32.80;9.18;;;13.60;99.90;;;;;;5142553;27;20054;-79
2022/05/17 03:09:55;;;;;;;24.10;7.90;;;13.60;99.90;;;;;;5151804;27;20047;-79
2022/05/17 03:12:20;;;;;;;24.73;8.60;;;13.60;99.90;;;;;;5138468;27;20050;-79
2022/05/17 03:14:46;;;;;;;24.05;8.55;;;13.50;99.90;;;;;;5113246;27;20122;-79
2022/05/17 03:17:14;;;;;;;19.85;8.20;;;13.60;99.90;;;;;;5136912;27;20498;-79
2022/05/17 03:19:40;;;;;;;22.27;9.23;;;13.50;99.90;;;;;;5108821;27;20421;-79
2022/05/17 03:22:06;;;;;;;21.73;8.68;;;13.50;99.90;;;;;;5157597;27;20154;-79
2022/05/17 03:24:32;;;;;;;21.67;8.48;;;13.40;99.90;;;;;;5138205;27;20047;-79
2022/05/17 03:26:59;;;;;;;21.55;8.85;;;13.40;99.90;;;;;;5157457;27;20054;-79
2022/05/17 03:29:25;;;;;;;23.50;9.02;;;13.40;99.90;;;;;;5156954;27;20087;-79
2022/05/17 03:31:51;;;;;;;22.02;8.23;;;13.40;99.90;;;;;;5122806;27;20048;-79
2022/05/17 03:34:17;;;;;;;21.98;8.07;;;13.40;99.90;;;;;;5147265;27;20038;-79
2022/05/17 03:36:43;;;;;;;25.88;9.00;;;13.40;99.90;;;;;;5139723;27;20082;-78
2022/05/17 03:39:09;;;;;;;24.90;9.07;;;13.40;99.90;;;;;;5157034;27;20477;-79
2022/05/17 03:41:35;;;;;;;16.80;7.63;;;13.40;99.90;;;;;;5157372;27;20047;-79
2022/05/17 03:44:02;;;;;;;25.40;9.07;;;13.40;99.90;;;;;;5156700;27;20039;-79
2022/05/17 03:46:31;;;;;;;22.13;9.13;;;13.40;99.90;;;;;;5140061;27;20074;-79
2022/05/17 03:48:59;;;;;;;22.88;8.45;;;13.40;99.90;;;;;;5130889;27;20106;-79
2022/05/17 03:51:24;;;;;;;19.77;8.48;;;13.40;99.90;;;;;;5137153;27;20494;-79
2022/05/17 03:53:53;;;;;;;21.88;8.77;;;13.40;99.90;;;;;;5126376;27;20039;-79
2022/05/17 03:56:19;;;;;;;22.35;8.70;;;13.40;99.90;;;;;;5121143;27;20447;-79
2022/05/17 03:58:45;;;;;;;24.40;10.18;;;13.40;99.90;;;;;;5113709;27;20074;-79
2022/05/17 04:01:12;;;;;;;27.55;9.55;;;13.40;99.90;;;;;;5118619;27;20047;-79
2022/05/17 04:03:38;;;;;;;19.60;9.18;;;13.50;99.90;;;;;;5117896;27;20043;-79
2022/05/17 04:06:05;;;;;;;25.73;10.70;;;13.50;99.90;;;;;;5123706;27;20490;-79
2022/05/17 04:08:31;;;;;;;25.90;10.57;;;13.50;99.90;;;;;;5156196;27;20109;-79
2022/05/17 04:10:57;;;;;;;21.50;9.07;;;13.50;99.90;;;;;;5133698;27;20095;-79
2022/05/17 04:13:26;;;;;;;27.20;9.45;;;13.60;99.90;;;;;;5136549;27;20047;-79
2022/05/17 04:15:52;;;;;;;22.40;9.00;;;13.60;99.90;;;;;;5117494;27;20073;-80
2022/05/17 04:18:18;;;;;;;29.73;9.90;;;13.70;99.90;;;;;;5117574;27;20054;-80
2022/05/17 04:20:44;;;;;;;24.73;9.73;;;13.70;99.90;;;;;;5133191;27;20035;-79
2022/05/17 04:23:10;;;;;;;20.52;8.32;;;13.70;99.90;;;;;;5135733;27;20039;-79
2022/05/17 04:25:35;;;;;;;21.38;8.63;;;13.80;99.90;;;;;;5155088;27;20048;-79
2022/05/17 04:28:01;;;;;;;16.45;8.15;;;13.80;99.90;;;;;;5157139;27;20473;-80
2022/05/17 04:30:28;;;;;;;17.98;8.15;;;13.80;99.90;;;;;;5113468;27;20051;-79
2022/05/17 04:32:54;;;;;;;26.05;10.10;;;13.90;99.90;;;;;;5136346;27;20068;-80
2022/05/17 04:35:19;;;;;;;22.30;8.63;;;14.00;99.90;;;;;;5145077;27;20047;-79
2022/05/17 04:37:45;;;;;;;23.02;9.25;;;14.00;99.90;;;;;;5135172;27;20039;-80
2022/05/17 04:40:13;;;;;;;23.95;7.95;;;14.10;99.90;;;;;;5117540;27;20053;-80
2022/05/17 04:42:40;;;;;;;21.75;8.40;;;14.20;99.90;;;;;;5117929;27;20043;-80
2022/05/17 04:45:08;;;;;;;22.58;8.60;;;14.20;99.90;;;;;;5150368;27;20043;-80
2022/05/17 04:47:34;;;;;;;20.88;7.70;;;14.20;99.90;;;;;;5156576;27;20038;-80
2022/05/17 04:50:00;;;;;;;24.00;7.45;;;14.20;99.90;;;;;;5124707;27;20038;-80
2022/05/17 04:52:29;;;;;;;17.13;7.07;;;14.20;99.90;;;;;;5153804;27;20034;-80
2022/05/17 04:54:54;;;;;;;19.92;7.75;;;14.20;99.90;;;;;;5137065;27;20074;-80
2022/05/17 04:57:20;;;;;;;24.17;8.40;;;14.20;99.90;;;;;;5154800;27;20488;-80
2022/05/17 04:59:46;;;;;;;21.42;8.98;;;14.20;99.90;;;;;;5151932;27;20039;-80
2022/05/17 05:02:11;;;;;;;20.13;7.60;;;14.20;99.90;;;;;;5126222;27;20528;-80
2022/05/17 05:04:38;;;;;;;21.60;8.23;;;14.30;99.90;;;;;;5147075;27;20508;-80
2022/05/17 05:07:05;;;;;;;18.77;7.10;;;14.30;99.90;;;;;;5150929;27;20046;-80
2022/05/17 05:09:32;;;;;;;21.33;8.07;;;14.40;99.90;;;;;;5102627;27;20502;-81
2022/05/17 05:11:58;;;;;;;19.42;7.07;;;14.50;99.90;;;;;;5134986;27;20561;-80
2022/05/17 05:14:24;;;;;;;23.77;7.32;;;14.50;99.90;;;;;;5136329;27;20043;-80
2022/05/17 05:16:50;;;;;;;13.23;6.10;;;14.60;99.90;;;;;;5136370;27;20047;-80
2022/05/17 05:19:16;;;;;;;20.23;6.93;;;14.70;99.90;;;;;;5134651;27;20050;-80
2022/05/17 05:21:42;;;;;;;21.00;7.50;;;14.80;99.90;;;;;;5140292;27;20046;-80
2022/05/17 05:24:11;;;;;;;20.75;7.28;;;14.90;99.90;;;;;;5139266;27;20073;-80
2022/05/17 05:26:38;;;;;;;21.65;6.80;;;15.00;99.90;;;;;;5134700;27;20440;-81
2022/05/17 05:29:05;;;;;;;17.73;6.05;;;15.10;99.90;;;;;;5135366;27;20103;-80
2022/05/17 05:31:31;;;;;;;17.35;6.57;;;15.20;99.90;;;;;;5116832;27;20050;-80
2022/05/17 05:34:00;;;;;;;15.93;5.63;;;15.40;99.90;;;;;;5115968;27;20042;-81
2022/05/17 05:36:28;;;;;;;20.25;6.22;;;15.50;99.90;;;;;;5147288;27;20050;-80
2022/05/17 05:38:55;;;;;;;19.45;6.57;;;15.70;99.90;;;;;;5120147;27;20043;-80
2022/05/17 05:41:21;;;;;;;20.13;5.57;;;15.70;99.90;;;;;;5121024;27;20118;-80
2022/05/17 05:43:47;;;;;;;16.23;5.78;;;15.90;99.90;;;;;;5116219;27;20163;-79
2022/05/17 05:46:12;;;;;;;23.73;5.40;;;15.90;99.90;;;;;;5115978;27;20047;-79
2022/05/17 05:48:38;;;;;;;18.50;4.93;;;16.00;99.90;;;;;;5150189;27;20050;-79
2022/05/17 05:51:04;;;;;;;23.23;7.28;;;16.00;99.90;;;;;;5101732;27;20043;-79
2022/05/17 05:53:30;;;;;;;13.52;5.03;;;16.00;99.90;;;;;;5148182;27;20148;-79
2022/05/17 05:56:01;;;;;;;13.52;4.43;;;16.10;99.90;;;;;;5135460;27;20058;-80
2022/05/17 05:58:35;;;;;;;19.55;5.63;;;16.10;99.90;;;;;;5142616;27;20042;-80
2022/05/17 06:01:01;;;;;;;17.73;5.40;;;16.10;99.90;;;;;;5115072;27;20183;-79
2022/05/17 06:03:28;;;;;;;21.38;6.07;;;16.20;99.90;;;;;;5119438;27;20086;-79
2022/05/17 06:05:54;;;;;;;20.40;5.85;;;16.20;99.90;;;;;;5131420;27;20051;-79
2022/05/17 06:08:24;;;;;;;18.90;5.07;;;16.20;99.90;;;;;;5114589;27;20114;-79
2022/05/17 06:10:49;;;;;;;15.35;5.53;;;16.20;99.90;;;;;;5139301;27;20035;-79
2022/05/17 06:13:19;;;;;;;18.08;5.22;;;16.30;99.90;;;;;;5146112;27;20493;-80
2022/05/17 06:15:46;;;;;;;24.52;5.88;;;16.30;99.90;;;;;;5114840;28;20050;-79
2022/05/17 06:18:12;;;;;;;18.77;5.35;;;16.40;99.90;;;;;;5137647;27;20084;-79
2022/05/17 06:20:39;;;;;;;17.50;4.72;;;16.40;99.90;;;;;;5151300;27;20482;-79
2022/05/17 06:23:06;;;;;;;17.45;5.82;;;16.40;99.90;;;;;;5128641;27;20089;-79
2022/05/17 06:25:33;;;;;;;18.45;4.75;;;16.40;99.90;;;;;;5131710;27;20405;-78
2022/05/17 06:27:59;;;;;;;16.48;4.47;;;16.50;99.90;;;;;;5139422;27;20046;-78
2022/05/17 06:30:25;;;;;;;17.80;4.82;;;16.40;99.90;;;;;;5131558;27;20478;-79
2022/05/17 06:32:51;;;;;;;35.40;6.85;;;16.40;99.90;;;;;;5118793;28;20072;-79
2022/05/17 06:35:18;;;;;;;16.75;4.95;;;16.40;99.90;;;;;;5114734;27;20047;-80
2022/05/17 06:37:44;;;;;;;21.38;5.38;;;16.40;99.90;;;;;;5117208;28;20042;-80
2022/05/17 06:40:11;;;;;;;14.88;4.82;;;16.40;99.90;;;;;;5134867;27;20096;-80
2022/05/17 06:42:37;;;;;;;19.98;5.03;;;16.40;99.90;;;;;;5099336;27;20046;-78
2022/05/17 06:45:03;;;;;;;19.98;5.30;;;16.50;99.90;;;;;;5097986;28;20118;-79
2022/05/17 06:47:29;;;;;;;19.25;5.65;;;16.50;99.90;;;;;;5144607;27;20091;-80
2022/05/17 06:49:55;;;;;;;17.63;5.00;;;16.50;99.90;;;;;;5136405;27;20137;-80
2022/05/17 06:52:23;;;;;;;25.80;5.25;;;16.60;99.90;;;;;;5116048;27;20051;-80
2022/05/17 06:54:49;;;;;;;16.88;5.13;;;16.60;99.90;;;;;;5133290;27;20062;-81
2022/05/17 06:57:15;;;;;;;20.25;6.28;;;16.70;99.90;;;;;;5117164;28;20397;-80
2022/05/17 06:59:42;;;;;;;23.38;5.95;;;16.70;99.90;;;;;;5147160;27;20443;-80
2022/05/17 07:02:08;;;;;;;19.08;6.03;;;16.70;99.90;;;;;;5126889;28;20103;-80
2022/05/17 07:04:35;;;;;;;21.50;7.53;;;16.80;99.90;;;;;;5132431;27;20092;-80
2022/05/17 07:07:01;;;;;;;23.00;5.22;;;16.90;99.90;;;;;;5116278;28;20080;-80
2022/05/17 07:09:28;;;;;;;19.88;5.40;;;16.90;99.90;;;;;;5123302;27;20043;-79
2022/05/17 07:14:39;;;;;;;19.65;4.90;;;17.10;99.90;;;;;;5118989;27;20509;-79
2022/05/17 07:17:17;;;;;;;19.98;5.03;;;17.20;99.90;;;;;;5138570;27;20043;-80
2022/05/17 07:19:43;;;;;;;17.23;5.30;;;17.30;99.90;;;;;;5118530;27;20050;-80
2022/05/17 07:22:10;;;;;;;20.73;6.13;;;17.30;99.90;;;;;;5137676;27;20085;-80
2022/05/17 07:24:36;;;;;;;21.17;4.80;;;17.40;99.90;;;;;;5140981;27;20080;-80
2022/05/17 07:27:03;;;;;;;15.75;5.72;;;17.50;99.90;;;;;;5114420;27;20039;-80
2022/05/17 07:29:29;;;;;;;25.75;6.07;;;17.60;99.90;;;;;;5124666;27;20047;-80
2022/05/17 07:31:55;;;;;;;22.85;6.55;;;17.60;99.90;;;;;;5118463;27;20038;-81
2022/05/17 07:34:21;;;;;;;20.10;5.00;;;17.80;99.90;;;;;;5121032;27;20039;-80
2022/05/17 07:36:48;;;;;;;21.60;4.75;;;17.80;99.90;;;;;;5136569;27;20073;-79
2022/05/17 07:39:14;;;;;;;18.02;5.07;;;17.90;99.90;;;;;;5119183;27;20043;-79
2022/05/17 07:41:41;;;;;;;17.00;4.85;;;18.00;99.90;;;;;;5144097;27;20108;-81
2022/05/17 07:44:08;;;;;;;16.08;4.60;;;18.00;99.90;;;;;;5136701;27;20046;-80
2022/05/17 07:46:34;;;;;;;19.95;5.63;;;18.10;99.90;;;;;;5101968;27;20039;-80
2022/05/17 07:49:00;;;;;;;19.80;4.97;;;18.10;99.90;;;;;;5144140;27;20062;-79
2022/05/17 07:51:28;;;;;;;14.82;5.22;;;18.20;99.90;;;;;;5134861;27;20039;-83
2022/05/17 07:53:54;;;;;;;15.38;4.35;;;18.30;99.90;;;;;;5099938;27;20054;-79
2022/05/17 07:56:20;;;;;;;15.18;4.78;;;18.40;99.90;;;;;;5102233;27;20055;-79
2022/05/17 07:58:46;;;;;;;15.55;4.63;;;18.40;99.90;;;;;;5125587;27;20278;-80
2022/05/17 08:01:12;;;;;;;17.05;4.13;;;18.40;99.90;;;;;;5116961;27;20039;-79
2022/05/17 08:03:38;;;;;;;17.85;4.28;;;18.40;99.90;;;;;;5118772;27;20043;-79
2022/05/17 08:06:05;;;;;;;24.92;5.10;;;18.50;99.90;;;;;;5136847;27;20039;-79
2022/05/17 08:08:31;;;;;;;12.45;3.95;;;18.50;99.90;;;;;;5139600;27;20131;-79
2022/05/17 08:10:57;;;;;;;17.25;4.03;;;18.50;99.90;;;;;;5135040;27;20039;-79
2022/05/17 08:13:24;;;;;;;18.05;4.40;;;18.60;99.90;;;;;;5118445;27;20133;-79
2022/05/17 08:15:50;;;;;;;20.08;4.72;;;18.60;99.90;;;;;;5135911;27;20114;-78
2022/05/17 08:18:17;;;;;;;14.55;4.10;;;18.70;99.90;;;;;;5136656;27;20036;-79
2022/05/17 08:20:44;;;;;;;15.25;4.18;;;18.70;99.90;;;;;;5136735;27;20096;-79
2022/05/17 08:23:10;;;;;;;12.55;4.00;;;18.70;99.90;;;;;;5117014;27;20472;-79
2022/05/17 08:28:20;;;;;;;15.23;3.88;;;18.80;99.90;;;;;;5138588;27;20053;-79
2022/05/17 08:30:47;;;;;;;21.40;4.43;;;18.80;99.90;;;;;;5156212;27;20091;-80
2022/05/17 08:33:16;;;;;;;15.25;4.30;;;18.90;99.90;;;;;;5138450;27;20125;-79
2022/05/17 08:35:52;;;;;;;17.08;4.55;;;19.00;99.90;;;;;;5138395;27;20067;-80
2022/05/17 08:38:45;;;;;;;10.13;3.72;;;19.10;99.90;;;;;;5156447;27;20046;-79
2022/05/17 08:41:44;;;;;;;12.27;3.63;;;19.20;99.90;;;;;;5147040;27;20050;-80
2022/05/17 08:44:13;;;;;;;15.30;5.10;;;19.20;99.90;;;;;;5135513;27;20054;-79
2022/05/17 08:46:50;;;;;;;11.75;3.70;;;19.20;99.90;;;;;;5117902;27;20359;-80
2022/05/17 08:49:37;;;;;;;14.65;4.40;;;19.30;99.90;;;;;;5136080;27;20035;-79
2022/05/17 08:52:09;;;;;;;12.32;3.33;;;19.30;99.90;;;;;;5117005;27;20051;-79
2022/05/17 08:54:58;;;;;;;9.07;3.05;;;19.40;99.90;;;;;;5136070;27;20050;-79
2022/05/17 08:57:33;;;;;;;10.43;3.47;;;19.40;99.90;;;;;;5139844;27;20098;-80
2022/05/17 09:00:22;;;;;;;12.77;3.40;;;19.50;99.90;;;;;;5156583;27;20439;-78
2022/05/17 09:03:09;;;;;;;16.92;3.55;;;19.50;99.90;;;;;;5155758;27;20410;-79
2022/05/17 09:05:46;;;;;;;15.85;3.55;;;19.60;99.90;;;;;;5137577;27;20062;-78
2022/05/17 09:08:19;;;;;;;13.25;3.08;;;19.60;99.90;;;;;;5138157;27;20055;-77
2022/05/17 09:10:52;;;;;;;7.85;3.25;;;19.60;99.90;;;;;;5137999;27;20043;-79
2022/05/17 09:13:41;;;;;;;17.00;3.55;;;19.70;99.90;;;;;;5121934;27;20038;-79
2022/05/17 09:16:08;;;;;;;13.93;3.92;;;19.80;99.90;;;;;;5135297;27;20044;-78
2022/05/17 09:18:34;;;;;;;9.75;3.35;;;19.80;99.90;;;;;;5134614;27;20058;-79
2022/05/17 09:20:59;;;;;;;12.13;2.67;;;19.90;99.90;;;;;;5135276;27;20043;-78
2022/05/17 09:23:25;;;;;;;10.68;2.72;;;19.90;99.90;;;;;;5099805;27;20051;-78
2022/05/17 09:25:51;;;;;;;14.40;3.83;;;19.90;99.90;;;;;;5116269;27;20082;-78
2022/05/17 09:28:20;;;;;;;13.13;3.03;;;20.00;99.90;;;;;;5100067;27;20103;-78
2022/05/17 09:30:46;;;;;;;10.50;2.63;;;19.90;99.90;;;;;;5136249;27;20073;-79
2022/05/17 09:33:19;;;;;;;12.15;2.78;;;20.00;99.90;;;;;;5155000;27;20402;-78
2022/05/17 09:35:55;;;;;;;11.88;2.63;;;20.00;99.90;;;;;;5155757;27;20058;-78
2022/05/17 09:38:22;;;;;;;11.80;2.97;;;20.20;99.90;;;;;;5142330;27;20049;-79
2022/05/17 09:40:50;;;;;;;12.57;2.88;;;20.20;99.90;;;;;;5134300;27;20448;-79
2022/05/17 09:43:24;;;;;;;11.88;2.95;;;20.30;99.90;;;;;;5135054;27;20086;-78
2022/05/17 09:45:58;;;;;;;11.18;3.30;;;20.40;99.90;;;;;;5135066;27;20122;-79
2022/05/17 09:48:26;;;;;;;15.15;2.65;;;20.50;99.90;;;;;;5143666;27;20049;-79
2022/05/17 09:53:47;;;;;;;9.90;2.40;;;20.60;99.90;;;;;;5136539;27;20054;-78
2022/05/17 09:56:16;;;;;;;14.55;3.33;;;20.60;99.90;;;;;;5136631;27;20505;-78
2022/05/17 09:58:43;;;;;;;12.75;3.90;;;20.50;99.90;;;;;;5137498;27;20132;-79
2022/05/17 10:01:22;;;;;;;17.48;3.33;;;20.40;99.90;;;;;;5134094;27;20078;-79
2022/05/17 10:04:09;;;;;;;19.58;3.60;;;20.40;99.90;;;;;;5155573;27;20030;-79
2022/05/17 10:06:38;;;;;;;12.48;3.00;;;20.30;99.90;;;;;;5153759;27;20489;-79
2022/05/17 10:09:25;;;;;;;15.35;2.97;;;20.20;99.90;;;;;;5129918;27;20034;-78
2022/05/17 10:12:10;;;;;;;9.82;2.70;;;20.20;99.90;;;;;;5155512;27;20091;-79
2022/05/17 10:14:43;;;;;;;13.15;2.65;;;20.20;99.90;;;;;;5136203;27;20102;-79
2022/05/17 10:17:15;;;;;;;10.03;3.00;;;20.30;99.90;;;;;;5155128;27;20046;-79
2022/05/17 10:20:01;;;;;;;9.85;2.70;;;20.40;99.90;;;;;;5136874;27;20046;-79
2022/05/17 10:22:54;;;;;;;9.32;2.88;;;20.50;99.90;;;;;;5150684;27;20114;-79
2022/05/17 10:25:41;;;;;;;13.40;3.13;;;20.70;99.90;;;;;;5115944;28;20123;-78
2022/05/17 10:28:32;;;;;;;12.38;3.28;;;20.80;99.90;;;;;;5099026;28;20043;-79
2022/05/17 10:31:04;;;;;;;14.23;3.08;;;21.00;99.90;;;;;;5120179;27;20039;-79
2022/05/17 10:33:39;;;;;;;9.02;2.25;;;21.10;99.90;;;;;;5155160;27;20082;-79
2022/05/17 10:36:13;;;;;;;9.32;2.97;;;21.20;99.90;;;;;;5135833;27;20043;-79
2022/05/17 10:38:51;;;;;;;14.05;2.97;;;21.20;99.90;;;;;;5136563;27;20054;-78
2022/05/17 10:41:17;;;;;;;9.98;2.08;;;21.20;99.90;;;;;;5150980;27;20035;-77
2022/05/17 10:43:48;;;;;;;8.65;2.22;;;21.20;99.90;;;;;;5115077;28;20054;-79
2022/05/17 10:46:27;;;;;;;8.20;2.20;;;21.20;99.90;;;;;;5115747;27;20047;-78
2022/05/17 10:49:06;;;;;;;8.55;2.10;;;21.30;99.90;;;;;;5119925;27;20053;-79
2022/05/17 10:51:50;;;;;;;9.32;1.98;;;21.30;99.70;;;;;;5137655;27;20043;-80
2022/05/17 10:54:34;;;;;;;13.68;1.95;;;21.30;99.90;;;;;;5119927;27;20039;-79
2022/05/17 10:57:24;;;;;;;10.50;2.55;;;21.30;99.90;;;;;;5148937;27;20046;-77
2022/05/17 11:00:09;;;;;;;9.10;1.90;;;21.40;99.90;;;;;;5131381;27;20082;-79
2022/05/17 11:03:12;;;;;;;10.45;2.65;;;21.40;99.90;;;;;;5138020;27;20038;-79
2022/05/17 11:06:09;;;;;;;11.95;2.42;;;21.40;99.90;;;;;;5137376;27;20075;-78
2022/05/17 11:08:37;;;;;;;14.30;2.63;;;21.50;99.90;;;;;;5138026;27;20398;-79
2022/05/17 11:11:11;;;;;;;9.02;1.90;;;21.60;99.90;;;;;;5118721;27;20053;-79
2022/05/17 11:13:52;;;;;;;9.57;1.92;;;21.60;99.80;;;;;;5137781;27;20062;-79
2022/05/17 11:16:32;;;;;;;5.95;2.08;;;21.70;99.70;;;;;;5119672;27;20043;-79
2022/05/17 11:19:06;;;;;;;65.22;4.32;;;21.70;99.30;;;;;;5118817;27;20051;-79
2022/05/17 11:21:47;;;;;;;8.05;2.10;;;21.80;99.90;;;;;;5119501;27;20047;-80
2022/05/17 11:24:27;;;;;;;6.15;1.80;;;21.90;99.90;;;;;;5137886;27;20134;-80
2022/05/17 11:27:13;;;;;;;8.02;1.60;;;21.90;99.90;;;;;;5118604;27;20085;-79
2022/05/17 11:30:12;;;;;;;7.25;2.13;;;22.00;99.70;;;;;;5125643;27;20415;-79
2022/05/17 11:32:42;;;;;;;4.63;1.60;;;22.00;97.80;;;;;;5139174;27;20038;-79
2022/05/17 11:35:26;;;;;;;5.25;1.40;;;22.10;96.10;;;;;;5158359;27;20053;-78
2022/05/17 11:37:53;;;;;;;6.65;1.25;;;22.10;93.80;;;;;;5122539;27;20039;-78
2022/05/17 11:40:47;;;;;;;6.57;1.70;;;22.10;95.00;;;;;;5138572;27;20049;-78
2022/05/17 11:43:42;;;;;;;8.07;1.70;;;22.20;91.50;;;;;;5127961;27;20489;-79
2022/05/17 11:46:34;;;;;;;6.43;1.70;;;22.10;94.90;;;;;;5136656;27;20043;-79
2022/05/17 11:49:17;;;;;;;10.02;1.80;;;22.20;95.40;;;;;;5137377;27;20047;-78
2022/05/17 11:51:58;;;;;;;5.50;1.73;;;22.30;95.20;;;;;;5137298;27;20038;-78
2022/05/17 11:54:45;;;;;;;10.52;2.50;;;22.40;93.00;;;;;;5136224;27;20043;-78
2022/05/17 11:57:16;;;;;;;8.68;2.40;;;22.40;91.80;;;;;;5136858;27;20063;-79
2022/05/17 11:59:42;;;;;;;6.50;1.73;;;22.30;91.00;;;;;;5147016;27;20050;-78
2022/05/17 12:02:12;;;;;;;6.05;1.40;;;22.30;87.40;;;;;;5157094;27;20065;-77
2022/05/17 12:04:44;;;;;;;6.28;1.67;;;22.10;85.60;;;;;;5157786;27;20039;-78
2022/05/17 12:07:23;;;;;;;8.82;1.98;;;21.80;82.50;;;;;;5156904;27;20057;-77
2022/05/17 12:09:52;;;;;;;9.20;2.58;;;21.70;89.50;;;;;;5157452;27;20105;-78
2022/05/17 12:12:48;;;;;;;6.97;1.85;;;21.60;91.60;;;;;;5157669;27;20034;-78
2022/05/17 12:15:32;;;;;;;5.63;1.75;;;21.70;93.10;;;;;;5138532;27;20047;-79
2022/05/17 12:18:21;;;;;;;9.32;2.17;;;21.90;93.50;;;;;;5118097;27;20490;-79
2022/05/17 12:21:28;;;;;;;148.38;7.20;;;22.10;93.30;;;;;;5118653;27;20035;-80
2022/05/17 12:24:02;;;;;;;4.07;1.85;;;22.30;95.30;;;;;;5118335;27;20122;-79
2022/05/17 12:26:50;;;;;;;5.47;1.98;;;22.50;90.40;;;;;;5119117;27;20051;-79
2022/05/17 12:32:10;;;;;;;6.05;1.27;;;22.50;91.20;;;;;;5152264;27;20050;-79
2022/05/17 12:34:37;;;;;;;7.72;1.60;;;22.60;86.10;;;;;;5156951;27;20046;-79
2022/05/17 12:37:14;;;;;;;5.45;1.30;;;22.50;86.70;;;;;;5153163;27;20121;-78
2022/05/17 12:45:14;;;;;;;;;;;22.70;90.40;;;;;;5157232;27;19919;-79
2022/05/17 12:47:51;;;;;;;5.55;1.42;;;22.70;91.30;;;;;;5144382;27;19922;-79
2022/05/17 12:50:21;;;;;;;6.60;2.10;;;22.70;80.40;;;;;;5151872;27;20035;-80
2022/05/17 12:52:58;;;;;;;6.78;1.55;;;22.70;79.00;;;;;;5149036;27;20035;-80
2022/05/17 12:55:28;;;;;;;5.93;1.57;;;22.80;79.00;;;;;;5145992;27;20495;-79
2022/05/17 12:57:54;;;;;;;7.13;1.73;;;22.70;75.40;;;;;;5146776;27;20129;-80
2022/05/17 13:00:23;;;;;;;7.57;1.50;;;22.80;75.90;;;;;;5155106;27;20031;-81
2022/05/17 13:03:01;;;;;;;13.60;2.38;;;22.80;82.80;;;;;;5137717;27;20612;-79
2022/05/17 13:05:31;;;;;;;10.05;2.05;;;22.90;84.40;;;;;;5151969;27;20039;-80
2022/05/17 13:08:08;;;;;;;7.10;1.60;;;23.00;86.10;;;;;;5135527;27;20043;-80
2022/05/17 13:10:36;;;;;;;6.57;1.77;;;23.10;87.70;;;;;;5145738;27;20079;-79